Aviation Digital Data Service (ADDS)

Output produced by METARs form (1323 UTC 24 August 2019)
found at http://www.aviationweather.gov/metar/data/
 
METAR text: FKKN 241300Z 18008KT 9999 BKN016 FEW020CB 22/19 Q1017
Conditions at: FKKN (NGAOUNDERE , CM) observed 1300 UTC 24 August 2019
Temperature: 22.0°C (72°F)
Dewpoint: 19.0°C (66°F) [RH = 83%]
Pressure (altimeter): 30.03 inches Hg (1017.0 mb)
Winds: from the S (180 degrees) at 9 MPH (8 knots; 4.1 m/s)
Visibility: 6 or more miles (10+ km)
Ceiling: 1600 feet AGL
Clouds: broken clouds at 1600 feet AGL
few clouds at 2000 feet AGL
Weather: no significant weather observed at this time

METAR text: FKKN 241200Z 18008KT 9999 BKN016TCU FEW020CB 26/18 Q1018
Conditions at: FKKN (NGAOUNDERE , CM) observed 1200 UTC 24 August 2019
Temperature: 26.0°C (79°F)
Dewpoint: 18.0°C (64°F) [RH = 61%]
Pressure (altimeter): 30.06 inches Hg (1018.0 mb)
Winds: from the S (180 degrees) at 9 MPH (8 knots; 4.1 m/s)
Visibility: 6 or more miles (10+ km)
Ceiling: 1600 feet AGL
Clouds: broken clouds at 1600 feet AGL
few clouds at 2000 feet AGL
Weather: no significant weather observed at this time

METAR text: FKKN 241100Z 18008KT 9999 BKN016TCU FEW020CB 25/18 Q1019
Conditions at: FKKN (NGAOUNDERE , CM) observed 1100 UTC 24 August 2019
Temperature: 25.0°C (77°F)
Dewpoint: 18.0°C (64°F) [RH = 65%]
Pressure (altimeter): 30.09 inches Hg (1019.0 mb)
Winds: from the S (180 degrees) at 9 MPH (8 knots; 4.1 m/s)
Visibility: 6 or more miles (10+ km)
Ceiling: 1600 feet AGL
Clouds: broken clouds at 1600 feet AGL
few clouds at 2000 feet AGL
Weather: no significant weather observed at this time

METAR text: FKKN 241000Z 22008KT 9999 SCT016 FEW020CB 25/18 Q1020
Conditions at: FKKN (NGAOUNDERE , CM) observed 1000 UTC 24 August 2019
Temperature: 25.0°C (77°F)
Dewpoint: 18.0°C (64°F) [RH = 65%]
Pressure (altimeter): 30.12 inches Hg (1020.0 mb)
Winds: from the SW (220 degrees) at 9 MPH (8 knots; 4.1 m/s)
Visibility: 6 or more miles (10+ km)
Ceiling: at least 12,000 feet AGL
Clouds: scattered clouds at 1600 feet AGL
few clouds at 2000 feet AGL
Weather: no significant weather observed at this time

METAR text: FKKN 240900Z 00000KT 9999 SCT016 23/19 Q1021
Conditions at: FKKN (NGAOUNDERE , CM) observed 0900 UTC 24 August 2019
Temperature: 23.0°C (73°F)
Dewpoint: 19.0°C (66°F) [RH = 78%]
Pressure (altimeter): 30.15 inches Hg (1021.0 mb)
Winds: calm
Visibility: 6 or more miles (10+ km)
Ceiling: at least 12,000 feet AGL
Clouds: scattered clouds at 1600 feet AGL
Weather: no significant weather observed at this time

METAR text: FKKN 240800Z 00000KT 9999 SCT016 21/18 Q1020
Conditions at: FKKN (NGAOUNDERE , CM) observed 0800 UTC 24 August 2019
Temperature: 21.0°C (70°F)
Dewpoint: 18.0°C (64°F) [RH = 83%]
Pressure (altimeter): 30.12 inches Hg (1020.0 mb)
Winds: calm
Visibility: 6 or more miles (10+ km)
Ceiling: at least 12,000 feet AGL
Clouds: scattered clouds at 1600 feet AGL
Weather: no significant weather observed at this time

METAR text: FKKN 240700Z 00000KT 9999 SCT016 20/18 Q1020
Conditions at: FKKN (NGAOUNDERE , CM) observed 0700 UTC 24 August 2019
Temperature: 20.0°C (68°F)
Dewpoint: 18.0°C (64°F) [RH = 88%]
Pressure (altimeter): 30.12 inches Hg (1020.0 mb)
Winds: calm
Visibility: 6 or more miles (10+ km)
Ceiling: at least 12,000 feet AGL
Clouds: scattered clouds at 1600 feet AGL
Weather: no significant weather observed at this time

METAR text: FKKN 240500Z 00000KT 9999 BKN016 18/18 Q1019
Conditions at: FKKN (NGAOUNDERE , CM) observed 0500 UTC 24 August 2019
Temperature: 18.0°C (64°F)
Dewpoint: 18.0°C (64°F) [RH = 100%]
Pressure (altimeter): 30.09 inches Hg (1019.0 mb)
Winds: calm
Visibility: 6 or more miles (10+ km)
Ceiling: 1600 feet AGL
Clouds: broken clouds at 1600 feet AGL
Weather: no significant weather observed at this time

METAR text: FKKN 231600Z 00000KT 4000 -RA SCT003 BKN013 FEW020CB 20/19 Q1017
Conditions at: FKKN (NGAOUNDERE , CM) observed 1600 UTC 23 August 2019
Temperature: 20.0°C (68°F)
Dewpoint: 19.0°C (66°F) [RH = 94%]
Pressure (altimeter): 30.03 inches Hg (1017.0 mb)
Winds: calm
Visibility: 2.49 miles (4.01 km)
Ceiling: 1300 feet AGL
Clouds: scattered clouds at 300 feet AGL
broken clouds at 1300 feet AGL
few clouds at 2000 feet AGL
Weather: -RA  (light rain)

METAR text: FKKN 231500Z 28006KT 4000 -RA SCT003 BKN013 FEW020CB 20/19 Q1017
Conditions at: FKKN (NGAOUNDERE , CM) observed 1500 UTC 23 August 2019
Temperature: 20.0°C (68°F)
Dewpoint: 19.0°C (66°F) [RH = 94%]
Pressure (altimeter): 30.03 inches Hg (1017.0 mb)
Winds: from the W (280 degrees) at 7 MPH (6 knots; 3.1 m/s)
Visibility: 2.49 miles (4.01 km)
Ceiling: 1300 feet AGL
Clouds: scattered clouds at 300 feet AGL
broken clouds at 1300 feet AGL
few clouds at 2000 feet AGL
Weather: -RA  (light rain)

METAR text: FKKN 231400Z 28006KT 4000 -RA SCT003 BKN013 FEW020CB 21/18 Q1018
Conditions at: FKKN (NGAOUNDERE , CM) observed 1400 UTC 23 August 2019
Temperature: 21.0°C (70°F)
Dewpoint: 18.0°C (64°F) [RH = 83%]
Pressure (altimeter): 30.06 inches Hg (1018.0 mb)
Winds: from the W (280 degrees) at 7 MPH (6 knots; 3.1 m/s)
Visibility: 2.49 miles (4.01 km)
Ceiling: 1300 feet AGL
Clouds: scattered clouds at 300 feet AGL
broken clouds at 1300 feet AGL
few clouds at 2000 feet AGL
Weather: -RA  (light rain)

METAR text: FKKN 231300Z 28008KT 7000 BKN016TCU FEW020CB 22/19 Q1017
Conditions at: FKKN (NGAOUNDERE , CM) observed 1300 UTC 23 August 2019
Temperature: 22.0°C (72°F)
Dewpoint: 19.0°C (66°F) [RH = 83%]
Pressure (altimeter): 30.03 inches Hg (1017.0 mb)
Winds: from the W (280 degrees) at 9 MPH (8 knots; 4.1 m/s)
Visibility: 4 miles ( 7 km)
Ceiling: 1600 feet AGL
Clouds: broken clouds at 1600 feet AGL
few clouds at 2000 feet AGL
Weather: no significant weather observed at this time

METAR text: FKKN 231200Z 32006KT 7000 -RA SCT016TCU FEW020CB 21/19 Q1018
Conditions at: FKKN (NGAOUNDERE , CM) observed 1200 UTC 23 August 2019
Temperature: 21.0°C (70°F)
Dewpoint: 19.0°C (66°F) [RH = 88%]
Pressure (altimeter): 30.06 inches Hg (1018.0 mb)
Winds: from the NW (320 degrees) at 7 MPH (6 knots; 3.1 m/s)
Visibility: 4 miles ( 7 km)
Ceiling: at least 12,000 feet AGL
Clouds: scattered clouds at 1600 feet AGL
few clouds at 2000 feet AGL
Weather: -RA  (light rain)

METAR text: FKKN 231100Z 32006KT 9999 BKN016TCU FEW020CB 25/18 Q1019
Conditions at: FKKN (NGAOUNDERE , CM) observed 1100 UTC 23 August 2019
Temperature: 25.0°C (77°F)
Dewpoint: 18.0°C (64°F) [RH = 65%]
Pressure (altimeter): 30.09 inches Hg (1019.0 mb)
Winds: from the NW (320 degrees) at 7 MPH (6 knots; 3.1 m/s)
Visibility: 6 or more miles (10+ km)
Ceiling: 1600 feet AGL
Clouds: broken clouds at 1600 feet AGL
few clouds at 2000 feet AGL
Weather: no significant weather observed at this time

METAR text: FKKN 231000Z 28004KT 9999 SCT016TCU 23/19 Q1020
Conditions at: FKKN (NGAOUNDERE , CM) observed 1000 UTC 23 August 2019
Temperature: 23.0°C (73°F)
Dewpoint: 19.0°C (66°F) [RH = 78%]
Pressure (altimeter): 30.12 inches Hg (1020.0 mb)
Winds: from the W (280 degrees) at 5 MPH (4 knots; 2.1 m/s)
Visibility: 6 or more miles (10+ km)
Ceiling: at least 12,000 feet AGL
Clouds: scattered clouds at 1600 feet AGL
Weather: no significant weather observed at this time

METAR text: FKKN 230900Z 00000KT 9999 BKN016 21/19 Q1021
Conditions at: FKKN (NGAOUNDERE , CM) observed 0900 UTC 23 August 2019
Temperature: 21.0°C (70°F)
Dewpoint: 19.0°C (66°F) [RH = 88%]
Pressure (altimeter): 30.15 inches Hg (1021.0 mb)
Winds: calm
Visibility: 6 or more miles (10+ km)
Ceiling: 1600 feet AGL
Clouds: broken clouds at 1600 feet AGL
Weather: no significant weather observed at this time

METAR text: FKKN 230800Z 00000KT 9999 BKN016 21/18 Q1021
Conditions at: FKKN (NGAOUNDERE , CM) observed 0800 UTC 23 August 2019
Temperature: 21.0°C (70°F)
Dewpoint: 18.0°C (64°F) [RH = 83%]
Pressure (altimeter): 30.15 inches Hg (1021.0 mb)
Winds: calm
Visibility: 6 or more miles (10+ km)
Ceiling: 1600 feet AGL
Clouds: broken clouds at 1600 feet AGL
Weather: no significant weather observed at this time

METAR text: FKKN 230600Z 00000KT 9999 FEW013 FEW020CB 19/19 Q1019 RETS
Conditions at: FKKN (NGAOUNDERE , CM) observed 0600 UTC 23 August 2019
Temperature: 19.0°C (66°F)
Dewpoint: 19.0°C (66°F) [RH = 100%]
Pressure (altimeter): 30.09 inches Hg (1019.0 mb)
Winds: calm
Visibility: 6 or more miles (10+ km)
Ceiling: at least 12,000 feet AGL
Clouds: few clouds at 1300 feet AGL
few clouds at 2000 feet AGL
Weather: no significant weather observed at this time